Decoded Metar for YBAS (ALICE SPRINGS in AUSTRALIA) (IATA:ASP) | Meteo·Mobile Aviation Weather
aviador You're here:

YBAS Decoded Metar

ALICE SPRINGS in AUSTRALIA
Report Time2018-08-21 12:00:00
UTC Time2018-08-21 12:11:23
Flight Rules vfr VFR
Wind340° at 06 kt
W.Decomp.*RWY 35: 5.8 kt HW 1.6 kt LCW
RWY 30: 4.9 kt HW 3.4 kt RCW
W.Rank340° ranks 22
Current wind is below 340° avg. (7.6)
Visibility9999 m
Phenomena:N/A
Clouds:N/A
Expected CloudBase > 12,000 ft AGL from Temp-Dew spread
CeilingNone
Temp13°C (ISA +2)
Dew Point-17°C (11% RH)
AAT7.4°C
QNH1017 hPa
Density Alt1,850 ft
Elevation1,775 ft
Report Wrong Elevation
Raw Report
METAR YBAS 211200Z AUTO 34006KT 9999 // NCD 13/M17 Q1017=

Extra information for YBAS:More info

Metar Taf Metar & Taf Last 4 Metars F.Rules Stats Wind Profile Meteogram Temp Stats Airport Information Weather charts Add Link Nearby VenuesMetar ALERT Operation Metar Decoded Social comments